Terminal Aerodrome Forecast
Issued by NWS Bismarck, ND

Home | Current Version | Previous Version | Graphics & Text | Print | Product List | Glossary On
Versions: 1 2 3 4 5 6 7 8 9 10 11 12 13 14 15 16 17
000
FTUS43 KBIS 162300
TAFBIS
TAF
KBIS 162334Z 1700/1724 05008KT P6SM BKN050
     FM171000 07006KT P6SM SCT250
     FM171200 09007KT P6SM SCT035
     FM171900 14012KT P6SM BKN080=

USA.gov is the U.S. government's official web portal to all federal, state and local government web resources and services.